Time;durP1;ratioP1;P1;durP2;ratioP2;P2;SDS_P1;SDS_P2;PMS_P1;PMS_P2;Temp;Humidity;BMP_temperature;BMP_pressure;BME280_temperature;BME280_humidity;BME280_pressure;Samples;Min_cycle;Max_cycle;Signal;HPM_P1;HPM_P2
2023/10/16 00:01:19;;;;;;;11.57;3.90;;;;;;;8.63;100.00;99677.36;1659697;86;21081;-68
2023/10/16 00:03:49;;;;;;;8.25;3.67;;;;;;;8.60;100.00;99681.02;1674079;84;21097;-67
2023/10/16 00:06:18;;;;;;;9.65;4.30;;;;;;;8.54;100.00;99684.88;1674468;86;21054;-67
2023/10/16 00:08:47;;;;;;;8.58;3.70;;;;;;;8.50;100.00;99686.33;1673926;85;21516;-66
2023/10/16 00:11:23;;;;;;;10.25;4.10;;;;;;;8.44;100.00;99676.71;1673972;85;21513;-67
2023/10/16 00:13:51;;;;;;;8.33;3.70;;;;;;;8.40;100.00;99681.73;1673920;86;21481;-67
2023/10/16 00:16:23;;;;;;;9.00;3.92;;;;;;;8.37;100.00;99687.59;1673966;84;21506;-67
2023/10/16 00:18:53;;;;;;;13.50;5.15;;;;;;;8.35;100.00;99682.86;1674076;84;21567;-66
2023/10/16 00:21:24;;;;;;;8.30;4.58;;;;;;;8.34;100.00;99678.44;1674372;84;21082;-66
2023/10/16 00:23:54;;;;;;;9.08;3.92;;;;;;;8.36;100.00;99687.27;1674283;86;21096;-67
2023/10/16 00:26:23;;;;;;;8.35;4.70;;;;;;;8.37;100.00;99688.95;1674032;86;21458;-65
2023/10/16 00:29:16;;;;;;;8.95;4.30;;;;;;;8.34;100.00;99684.42;1674028;84;21509;-66
2023/10/16 00:31:32;;;;;;;12.68;5.22;;;;;;;8.32;100.00;99682.38;1674246;85;21050;-67
2023/10/16 00:34:02;;;;;;;10.32;5.03;;;;;;;8.30;100.00;99683.11;1674031;86;21498;-65
2023/10/16 00:36:31;;;;;;;12.35;6.28;;;;;;;8.27;100.00;99684.34;1669431;86;21087;-66
2023/10/16 00:39:12;;;;;;;14.35;7.12;;;;;;;8.22;100.00;99674.55;1667525;84;21039;-64
2023/10/16 00:41:35;;;;;;;21.07;8.03;;;;;;;8.20;100.00;99681.58;1696405;84;21124;-65
2023/10/16 00:44:05;;;;;;;16.60;8.48;;;;;;;8.21;100.00;99672.87;1700080;84;21084;-64
2023/10/16 00:46:36;;;;;;;20.82;10.08;;;;;;;8.23;100.00;99676.23;1699909;84;21516;-64
2023/10/16 00:49:05;;;;;;;24.57;11.43;;;;;;;8.24;100.00;99672.47;1700196;84;21126;-64
2023/10/16 00:51:38;;;;;;;21.85;10.08;;;;;;;8.21;100.00;99663.31;1699942;84;21532;-64
2023/10/16 00:54:16;;;;;;;15.32;7.10;;;;;;;8.19;100.00;99662.16;1696841;83;21021;-65
2023/10/16 00:56:45;;;;;;;14.15;6.83;;;;;;;8.14;100.00;99663.80;1664391;85;21255;-64
2023/10/16 00:59:18;;;;;;;13.43;6.30;;;;;;;8.11;100.00;99661.47;1691745;85;21073;-65
2023/10/16 01:01:45;;;;;;;10.75;5.30;;;;;;;8.09;100.00;99667.65;1691660;85;21520;-63
2023/10/16 01:04:16;;;;;;;10.30;5.10;;;;;;;8.08;100.00;99664.60;1691858;85;21069;-64
2023/10/16 01:06:46;;;;;;;12.98;4.53;;;;;;;8.08;100.00;99665.96;1691903;85;21061;-65
2023/10/16 01:09:25;;;;;;;8.05;4.00;;;;;;;8.06;100.00;99659.86;1691759;85;21119;-64
2023/10/16 01:11:47;;;;;;;10.95;3.72;;;;;;;8.02;100.00;99659.94;1689542;85;21136;-65
2023/10/16 01:14:17;;;;;;;8.58;3.98;;;;;;;8.00;100.00;99656.57;1691705;85;21505;-68
2023/10/16 01:16:47;;;;;;;9.25;3.65;;;;;;;7.95;100.00;99649.83;1691880;85;21033;-64
2023/10/16 01:19:19;;;;;;;6.80;3.47;;;;;;;7.92;100.00;99653.47;1691704;83;21073;-64
2023/10/16 01:21:47;;;;;;;7.70;3.83;;;;;;;7.89;100.00;99650.63;1691869;85;21105;-65
2023/10/16 01:24:19;;;;;;;9.28;3.95;;;;;;;7.86;100.00;99651.02;1691695;85;21508;-66
2023/10/16 01:26:48;;;;;;;5.35;3.20;;;;;;;7.86;100.00;99649.66;1691690;85;21073;-65
2023/10/16 01:29:17;;;;;;;6.10;3.22;;;;;;;7.88;100.00;99649.45;1691711;85;21562;-64
2023/10/16 01:31:52;;;;;;;7.72;3.75;;;;;;;7.85;100.00;99644.41;1691913;85;21041;-65
2023/10/16 01:34:22;;;;;;;8.90;3.62;;;;;;;7.82;100.00;99646.16;1691713;83;21489;-65
2023/10/16 01:36:51;;;;;;;6.75;3.58;;;;;;;7.82;100.00;99651.61;1691836;84;21497;-65
2023/10/16 01:42:11;;;;;;;6.60;3.80;;;;;;;7.84;100.00;99646.28;1627336;87;21077;-66
2023/10/16 01:44:43;;;;;;;8.73;3.60;;;;;;;7.81;100.00;99648.56;1626991;88;21485;-66
2023/10/16 01:47:15;;;;;;;7.53;3.83;;;;;;;7.78;100.00;99652.50;1627227;88;21149;-66
2023/10/16 01:49:47;;;;;;;7.60;3.72;;;;;;;7.74;100.00;99648.48;1627304;88;21284;-66
2023/10/16 01:52:16;;;;;;;7.75;3.62;;;;;;;7.72;100.00;99643.75;1627107;86;21501;-67
2023/10/16 01:54:46;;;;;;;12.18;3.77;;;;;;;7.71;100.00;99648.88;1627096;88;21073;-66
2023/10/16 01:57:17;;;;;;;7.00;3.50;;;;;;;7.74;100.00;99635.37;1627144;88;21157;-67
2023/10/16 01:59:49;;;;;;;9.35;3.80;;;;;;;7.78;100.00;99633.94;1627143;88;21046;-68
2023/10/16 02:02:18;;;;;;;7.65;3.72;;;;;;;7.76;100.00;99625.95;1627147;88;21134;-67
2023/10/16 02:04:49;;;;;;;8.23;3.98;;;;;;;7.78;100.00;99620.30;1627290;87;21739;-66
2023/10/16 02:07:19;;;;;;;10.15;4.25;;;;;;;7.77;100.00;99610.44;1627181;86;21069;-67
2023/10/16 02:09:52;;;;;;;11.15;5.45;;;;;;;7.77;100.00;99609.07;1627179;88;21105;-66
2023/10/16 02:12:24;;;;;;;10.48;3.90;;;;;;;7.79;100.00;99606.47;1634731;85;21607;-66
2023/10/16 02:14:56;;;;;;;12.40;5.28;;;;;;;7.79;100.00;99601.02;1691847;85;21084;-68
2023/10/16 02:17:26;;;;;;;7.67;4.47;;;;;;;7.82;100.00;99605.26;1692003;85;21101;-66
2023/10/16 02:19:58;;;;;;;9.50;4.95;;;;;;;7.82;100.00;99606.09;1691929;85;21108;-66
2023/10/16 02:22:27;;;;;;;11.00;4.70;;;;;;;7.85;100.00;99600.77;1691667;85;21053;-65
2023/10/16 02:24:59;;;;;;;10.13;5.25;;;;;;;7.85;100.00;99605.70;1691672;83;21132;-65
2023/10/16 02:27:29;;;;;;;10.45;4.80;;;;;;;7.85;100.00;99596.16;1691587;83;21037;-66
2023/10/16 02:30:14;;;;;;;8.98;4.50;;;;;;;7.85;100.00;99605.70;1691844;85;21069;-66
2023/10/16 02:32:30;;;;;;;12.58;5.22;;;;;;;7.83;100.00;99598.23;1689216;83;21521;-65
2023/10/16 02:35:00;;;;;;;8.53;4.33;;;;;;;7.82;100.00;99599.80;1691889;83;21594;-66
2023/10/16 02:37:29;;;;;;;12.13;4.33;;;;;;;7.84;100.00;99603.17;1691838;85;21132;-66
2023/10/16 02:39:59;;;;;;;9.98;4.75;;;;;;;7.87;100.00;99604.98;1691868;83;21525;-66
2023/10/16 02:42:28;;;;;;;7.70;4.15;;;;;;;7.89;100.00;99601.53;1645077;86;21048;-66
2023/10/16 02:44:57;;;;;;;8.38;4.47;;;;;;;7.89;100.00;99597.44;1645140;87;21056;-65
2023/10/16 02:47:26;;;;;;;8.10;4.15;;;;;;;7.87;100.00;99598.16;1645211;86;21087;-66
2023/10/16 02:49:56;;;;;;;7.10;4.35;;;;;;;7.86;100.00;99612.84;1645125;87;21082;-67
2023/10/16 02:52:26;;;;;;;9.45;4.67;;;;;;;7.83;100.00;99611.03;1644758;87;21100;-68
2023/10/16 02:54:56;;;;;;;6.60;3.55;;;;;;;7.81;100.00;99609.03;1645015;86;21044;-66
2023/10/16 02:57:28;;;;;;;7.72;4.00;;;;;;;7.78;100.00;99606.66;1644928;86;21063;-66
2023/10/16 02:59:57;;;;;;;6.42;3.60;;;;;;;7.78;100.00;99593.88;1648543;86;21068;-66
2023/10/16 03:02:27;;;;;;;7.22;3.83;;;;;;;7.82;100.00;99588.89;1645004;86;21060;-66
2023/10/16 03:05:10;;;;;;;6.28;3.98;;;;;;;7.82;100.00;99587.02;1644857;86;21052;-65
2023/10/16 03:07:28;;;;;;;9.60;3.98;;;;;;;7.83;100.00;99590.58;1645240;86;21508;-65
2023/10/16 03:09:57;;;;;;;6.22;4.05;;;;;;;7.84;100.00;99593.11;1645069;87;21056;-65
2023/10/16 03:12:27;;;;;;;7.83;3.80;;;;;;;7.86;100.00;99596.48;1645045;87;21052;-65
2023/10/16 03:15:00;;;;;;;6.67;3.55;;;;;;;7.87;100.00;99592.70;1644913;86;21147;-66
2023/10/16 03:19:59;;;;;;;9.60;3.55;;;;;;;7.84;100.00;99602.66;1645022;87;21068;-64
2023/10/16 03:22:28;;;;;;;7.58;3.75;;;;;;;7.83;100.00;99600.13;1645083;87;21101;-65
2023/10/16 03:24:59;;;;;;;5.35;3.30;;;;;;;7.81;100.00;99596.75;1645041;87;21455;-65
2023/10/16 03:27:29;;;;;;;10.20;3.70;;;;;;;7.79;100.00;99602.38;1644897;87;21055;-66
2023/10/16 03:29:59;;;;;;;8.13;4.33;;;;;;;7.77;100.00;99597.64;1645028;86;21179;-67
2023/10/16 03:32:33;;;;;;;8.70;5.05;;;;;;;7.77;100.00;99607.70;1644851;87;21102;-66
2023/10/16 03:35:05;;;;;;;14.15;5.15;;;;;;;7.76;100.00;99606.87;1644867;86;21089;-67
2023/10/16 03:37:35;;;;;;;12.90;6.20;;;;;;;7.76;100.00;99609.59;1644804;86;21067;-67
2023/10/16 03:40:11;;;;;;;11.12;6.55;;;;;;;7.76;100.00;99612.31;1644940;86;21032;-67
2023/10/16 03:42:40;;;;;;;11.55;5.75;;;;;;;7.70;100.00;99617.20;1688891;85;21582;-67
2023/10/16 03:45:09;;;;;;;10.90;6.00;;;;;;;7.65;100.00;99615.59;1691823;83;21071;-67
2023/10/16 03:47:38;;;;;;;12.10;6.10;;;;;;;7.61;100.00;99619.23;1691858;85;21097;-68
2023/10/16 03:50:08;;;;;;;10.40;6.28;;;;;;;7.59;100.00;99609.56;1691609;84;21037;-67
2023/10/16 03:52:38;;;;;;;11.05;5.42;;;;;;;7.59;100.00;99618.59;1691608;85;21072;-67
2023/10/16 03:55:31;;;;;;;11.57;6.67;;;;;;;7.56;100.00;99612.17;1691666;85;21108;-67
2023/10/16 03:57:57;;;;;;;13.35;7.12;;;;;;;7.56;100.00;99607.23;1691768;84;21249;-68
2023/10/16 04:00:27;;;;;;;13.28;6.92;;;;;;;7.53;100.00;99609.00;1691593;85;21105;-67
2023/10/16 04:02:59;;;;;;;12.88;6.60;;;;;;;7.52;100.00;99604.06;1691698;83;21049;-68
2023/10/16 04:05:33;;;;;;;13.35;6.12;;;;;;;7.50;100.00;99591.67;1691744;83;21048;-68
2023/10/16 04:08:02;;;;;;;12.28;5.47;;;;;;;7.49;100.00;99590.83;1691938;85;21049;-68
2023/10/16 04:10:31;;;;;;;12.55;5.70;;;;;;;7.48;100.00;99587.78;1691606;85;21108;-66
2023/10/16 04:13:01;;;;;;;11.40;5.75;;;;;;;7.44;100.00;99589.22;1691787;85;21065;-65
2023/10/16 04:31:45;;;;;;;15.55;6.05;;;;;;;7.57;100.00;99598.02;1691570;85;21077;-66
2023/10/16 04:50:30;;;;;;;15.25;8.25;;;;;;;7.62;100.00;99603.72;1645618;87;21135;-67
2023/10/16 04:53:07;;;;;;;16.45;7.40;;;;;;;7.61;100.00;99600.16;1645933;87;21155;-65
2023/10/16 05:14:28;;;;;;;18.98;9.70;;;;;;;7.72;100.00;99596.55;1645434;86;21088;-64
2023/10/16 05:19:52;;;;;;;18.90;10.43;;;;;;;7.81;100.00;99598.96;1645688;86;21535;-65
2023/10/16 06:15:26;;;;;;;24.18;10.88;;;;;;;7.69;100.00;99627.78;1653076;85;21542;-64
2023/10/16 06:17:55;;;;;;;18.75;10.00;;;;;;;7.68;100.00;99624.73;1653055;87;21099;-64
2023/10/16 06:20:25;;;;;;;21.80;10.32;;;;;;;7.65;100.00;99621.05;1653069;87;21111;-64
2023/10/16 06:22:58;;;;;;;23.73;10.60;;;;;;;7.63;100.00;99617.16;1653307;86;21120;-63
2023/10/16 06:25:28;;;;;;;22.20;10.65;;;;;;;7.61;100.00;99610.21;1653042;85;21119;-64
2023/10/16 06:27:59;;;;;;;15.45;9.35;;;;;;;7.55;100.00;99613.21;1653089;87;21064;-64
2023/10/16 06:30:28;;;;;;;21.15;10.55;;;;;;;7.55;100.00;99620.55;1652995;87;21101;-65
2023/10/16 06:32:58;;;;;;;20.97;10.90;;;;;;;7.57;100.00;99619.83;1653002;85;21083;-64
2023/10/16 06:35:28;;;;;;;22.58;11.28;;;;;;;7.60;100.00;99635.27;1653235;85;21100;-65
2023/10/16 06:38:00;;;;;;;19.67;10.72;;;;;;;7.61;100.00;99631.50;1653294;85;21108;-65
2023/10/16 06:40:32;;;;;;;19.07;10.53;;;;;;;7.60;99.65;99630.34;1653106;86;21545;-64
2023/10/16 06:43:16;;;;;;;22.10;11.53;;;;;;;7.59;99.74;99634.95;1666882;83;21117;-63
2023/10/16 06:45:56;;;;;;;21.80;11.60;;;;;;;7.61;99.85;99645.66;1674394;85;21058;-66
2023/10/16 06:48:27;;;;;;;19.90;11.15;;;;;;;7.66;99.90;99649.16;1674305;86;21093;-65
2023/10/16 06:51:04;;;;;;;19.48;10.88;;;;;;;7.67;98.98;99651.68;1674264;86;21109;-64
2023/10/16 06:53:36;;;;;;;20.82;11.20;;;;;;;7.63;98.90;99651.23;1674596;86;21089;-65
2023/10/16 06:56:07;;;;;;;18.92;11.15;;;;;;;7.64;98.71;99645.26;1674464;84;21137;-67
2023/10/16 06:58:35;;;;;;;24.82;12.18;;;;;;;7.65;98.71;99648.31;1674239;84;21144;-65
2023/10/16 07:01:06;;;;;;;25.30;12.28;;;;;;;7.69;98.87;99637.84;1674240;84;21070;-64
2023/10/16 07:03:39;;;;;;;24.45;12.65;;;;;;;7.72;98.41;99638.30;1674113;84;21108;-64
2023/10/16 07:06:09;;;;;;;22.75;12.55;;;;;;;7.76;98.44;99642.31;1674214;86;21137;-66
2023/10/16 07:08:41;;;;;;;29.55;13.28;;;;;;;7.81;98.31;99638.50;1674312;86;21117;-65
2023/10/16 07:11:13;;;;;;;21.77;11.38;;;;;;;7.83;98.06;99633.69;1674472;84;21077;-67
2023/10/16 07:13:43;;;;;;;23.27;11.90;;;;;;;7.87;97.87;99632.77;1674282;86;21169;-65
2023/10/16 07:16:15;;;;;;;28.17;14.03;;;;;;;7.89;97.74;99636.14;1674184;86;21104;-64
2023/10/16 07:18:44;;;;;;;28.65;13.38;;;;;;;7.92;97.79;99633.86;1674198;84;21519;-66
2023/10/16 07:21:17;;;;;;;22.37;12.40;;;;;;;7.98;97.75;99635.47;1674553;86;21104;-66
2023/10/16 07:23:44;;;;;;;27.70;13.62;;;;;;;8.01;97.51;99632.34;1674283;86;21075;-65
2023/10/16 07:26:17;;;;;;;23.10;12.35;;;;;;;7.99;97.11;99637.16;1674644;86;21659;-68
2023/10/16 07:28:51;;;;;;;21.07;12.40;;;;;;;8.02;97.11;99634.03;1674266;84;21568;-64
2023/10/16 07:31:22;;;;;;;28.40;12.55;;;;;;;8.04;97.01;99642.33;1674374;84;21098;-67
2023/10/16 07:33:54;;;;;;;22.67;10.48;;;;;;;8.04;96.35;99634.67;1674177;86;21085;-64
2023/10/16 07:36:22;;;;;;;24.70;11.60;;;;;;;8.06;96.25;99639.41;1674414;84;21098;-65
2023/10/16 07:38:54;;;;;;;18.07;10.70;;;;;;;8.07;95.88;99632.91;1674205;84;21110;-63
2023/10/16 07:41:24;;;;;;;22.58;11.93;;;;;;;8.12;95.86;99630.41;1648148;87;21593;-66
2023/10/16 07:43:56;;;;;;;19.10;10.48;;;;;;;8.19;95.75;99644.42;1648078;87;21548;-66
2023/10/16 07:46:30;;;;;;;18.92;10.43;;;;;;;8.25;95.44;99636.80;1647943;87;21092;-66
2023/10/16 07:49:09;;;;;;;24.27;10.53;;;;;;;8.26;94.08;99639.00;1648217;87;21096;-65
2023/10/16 07:51:34;;;;;;;20.02;10.38;;;;;;;8.25;93.92;99643.61;1647771;87;21047;-65
2023/10/16 07:54:07;;;;;;;21.17;10.72;;;;;;;8.28;93.88;99639.64;1633541;86;21095;-66
2023/10/16 08:00:42;;;;;;;26.10;11.55;;;;;;;8.37;93.95;99645.28;1665279;86;21088;-66
2023/10/16 08:03:14;;;;;;;23.90;10.20;;;;;;;8.41;92.92;99641.11;1678361;84;21063;-67
2023/10/16 08:05:47;;;;;;;19.65;10.40;;;;;;;8.48;93.23;99642.02;1667865;85;21175;-68
2023/10/16 08:08:15;;;;;;;19.40;9.90;;;;;;;8.56;93.16;99640.47;1663594;86;21063;-67
2023/10/16 08:10:45;;;;;;;22.30;9.65;;;;;;;8.62;92.10;99639.34;1654738;86;21073;-66
2023/10/16 08:13:16;;;;;;;21.42;9.88;;;;;;;8.63;91.28;99647.84;1635031;87;21055;-65
2023/10/16 08:15:44;;;;;;;27.82;10.93;;;;;;;8.65;91.32;99637.56;1612263;89;21627;-65
2023/10/16 08:18:14;;;;;;;21.07;9.48;;;;;;;8.73;91.10;99649.67;1636963;86;21086;-65
2023/10/16 08:20:49;;;;;;;21.07;9.10;;;;;;;8.83;91.03;99649.61;1656153;87;21106;-66
2023/10/16 08:23:21;;;;;;;15.85;8.08;;;;;;;8.89;90.43;99652.05;1656200;86;21071;-66
2023/10/16 08:25:49;;;;;;;19.95;7.92;;;;;;;8.93;89.24;99653.31;1656131;87;21484;-67
2023/10/16 08:28:20;;;;;;;18.95;8.98;;;;;;;8.96;88.25;99657.00;1656174;86;21096;-64
2023/10/16 08:30:49;;;;;;;16.52;7.72;;;;;;;9.01;88.30;99656.39;1656292;87;21067;-66
2023/10/16 08:33:30;;;;;;;18.37;8.83;;;;;;;9.05;87.58;99654.41;1651844;85;21032;-65
2023/10/16 08:35:51;;;;;;;17.52;7.50;;;;;;;9.08;87.27;99653.15;1660096;86;21530;-67
2023/10/16 08:38:21;;;;;;;19.42;7.42;;;;;;;9.11;86.73;99651.41;1650460;87;21031;-67
2023/10/16 08:40:58;;;;;;;12.95;7.67;;;;;;;9.13;85.06;99654.77;1650499;87;21508;-66
2023/10/16 08:44:14;;;;;;;21.27;7.72;;;;;;;9.16;85.01;99652.47;1638839;87;21171;-66
2023/10/16 08:46:02;;;;;;;14.85;7.95;;;;;;;9.23;84.51;99653.00;1626080;88;21072;-66
2023/10/16 08:48:32;;;;;;;20.55;8.10;;;;;;;9.29;84.25;99652.17;1630413;88;21126;-67
2023/10/16 08:51:02;;;;;;;16.48;6.72;;;;;;;9.30;83.66;99650.59;1630283;88;21107;-66
2023/10/16 08:53:31;;;;;;;17.12;6.87;;;;;;;9.31;82.96;99651.44;1630338;88;21064;-65
2023/10/16 08:56:07;;;;;;;20.02;7.70;;;;;;;9.34;82.67;99651.02;1630406;87;21052;-66
2023/10/16 08:58:40;;;;;;;17.37;6.87;;;;;;;9.43;82.86;99654.72;1630212;88;21218;-67
2023/10/16 09:01:10;;;;;;;16.97;7.37;;;;;;;9.53;82.07;99654.30;1630424;88;21640;-67
2023/10/16 09:03:50;;;;;;;18.73;6.72;;;;;;;9.62;81.69;99647.58;1630359;87;21469;-67
2023/10/16 09:06:23;;;;;;;18.10;8.30;;;;;;;9.67;80.22;99651.89;1630233;88;21080;-66
2023/10/16 09:08:54;;;;;;;20.60;6.37;;;;;;;9.73;80.08;99647.47;1630540;88;21096;-66
2023/10/16 09:11:25;;;;;;;15.55;7.62;;;;;;;9.87;79.91;99644.23;1623158;88;21136;-65
2023/10/16 09:13:59;;;;;;;16.97;8.38;;;;;;;9.96;79.05;99648.44;1632027;87;21174;-66
2023/10/16 09:16:31;;;;;;;16.80;7.75;;;;;;;10.07;78.39;99637.68;1611248;88;21163;-67
2023/10/16 09:19:06;;;;;;;20.65;8.63;;;;;;;10.22;78.02;99629.78;1631450;88;21100;-67
2023/10/16 09:21:38;;;;;;;16.95;7.65;;;;;;;10.32;77.43;99624.17;1654335;86;21099;-67
2023/10/16 09:24:05;;;;;;;15.90;7.33;;;;;;;10.44;77.28;99615.64;1634962;86;21504;-67
2023/10/16 09:26:38;;;;;;;12.70;5.70;;;;;;;10.54;75.53;99625.30;1647430;86;21453;-66
2023/10/16 09:29:13;;;;;;;11.53;4.65;;;;;;;10.58;74.20;99615.59;1668487;85;21472;-69
2023/10/16 09:31:36;;;;;;;12.20;4.42;;;;;;;10.62;72.41;99626.42;1668253;86;21080;-65
2023/10/16 09:34:06;;;;;;;13.50;4.30;;;;;;;10.58;68.63;99623.27;1668797;85;21096;-67
2023/10/16 09:36:36;;;;;;;11.18;4.00;;;;;;;10.57;68.48;99620.75;1664236;86;21586;-65
2023/10/16 09:39:18;;;;;;;20.20;4.62;;;;;;;10.53;69.13;99619.50;1668702;86;21128;-67
2023/10/16 09:41:52;;;;;;;12.07;3.85;;;;;;;10.57;70.43;99620.22;1668416;85;21084;-66
2023/10/16 09:44:36;;;;;;;11.75;4.03;;;;;;;10.57;68.15;99618.02;1683977;85;21521;-66
2023/10/16 09:46:53;;;;;;;15.65;4.55;;;;;;;10.53;68.17;99624.98;1676561;85;21076;-65
2023/10/16 09:49:23;;;;;;;10.05;4.42;;;;;;;10.52;66.88;99624.67;1675563;86;21127;-66
2023/10/16 09:52:04;;;;;;;8.98;4.35;;;;;;;10.53;67.33;99634.56;1665094;86;21076;-67
2023/10/16 09:54:34;;;;;;;14.78;4.20;;;;;;;10.48;67.28;99626.47;1664954;86;21069;-69
2023/10/16 09:57:06;;;;;;;11.43;3.83;;;;;;;10.49;67.43;99628.68;1665210;86;21081;-70
2023/10/16 09:59:40;;;;;;;10.68;3.80;;;;;;;10.55;65.51;99635.19;1665083;85;21049;-69
2023/10/16 10:02:18;;;;;;;19.27;4.30;;;;;;;10.49;65.40;99624.57;1665281;86;21044;-66
2023/10/16 10:04:54;;;;;;;13.15;3.75;;;;;;;10.42;66.32;99626.50;1665407;86;21100;-67
2023/10/16 10:07:34;;;;;;;6.80;2.47;;;;;;;10.36;65.20;99628.69;1665336;85;21152;-69
2023/10/16 10:09:57;;;;;;;9.18;3.55;;;;;;;10.36;64.93;99629.53;1665377;85;21390;-68
2023/10/16 10:12:42;;;;;;;9.25;3.00;;;;;;;10.40;64.00;99626.70;1674863;85;21183;-67
2023/10/16 10:15:30;;;;;;;15.93;4.30;;;;;;;10.47;64.73;99623.95;1624796;88;21133;-66
2023/10/16 10:18:31;;;;;;;9.95;2.90;;;;;;;10.51;63.85;99636.16;1647562;86;21048;-69
2023/10/16 10:20:39;;;;;;;12.73;3.52;;;;;;;10.52;62.82;99629.62;1644780;86;21516;-69
2023/10/16 10:23:07;;;;;;;15.88;3.90;;;;;;;10.48;62.44;99639.33;1647532;87;21531;-68
2023/10/16 10:25:40;;;;;;;7.65;2.33;;;;;;;10.44;63.27;99640.28;1647776;87;21539;-69
2023/10/16 10:28:22;;;;;;;7.97;2.45;;;;;;;10.42;62.03;99635.55;1647859;86;21029;-67
2023/10/16 10:30:50;;;;;;;11.00;2.90;;;;;;;10.40;61.89;99628.58;1626704;86;21584;-68
2023/10/16 10:33:57;;;;;;;8.45;2.83;;;;;;;10.34;62.67;99630.28;1647542;87;21484;-68
2023/10/16 10:36:39;;;;;;;7.65;3.08;;;;;;;10.36;62.94;99642.38;1647668;86;21084;-67
2023/10/16 10:42:10;;;;;;;7.15;2.90;;;;;;;10.50;61.80;99636.37;1647610;87;21112;-68
2023/10/16 10:44:42;;;;;;;9.98;2.72;;;;;;;10.59;62.34;99630.96;1641419;86;21123;-69
2023/10/16 10:47:30;;;;;;;8.13;2.47;;;;;;;10.66;62.81;99635.36;1632063;87;21499;-67
2023/10/16 10:50:00;;;;;;;10.65;2.58;;;;;;;10.76;62.10;99633.52;1628631;88;21566;-69
2023/10/16 10:52:32;;;;;;;8.85;2.65;;;;;;;10.83;61.16;99640.34;1658712;85;21071;-68
2023/10/16 10:55:14;;;;;;;8.83;2.37;;;;;;;10.84;60.75;99645.61;1681596;84;21047;-71
2023/10/16 10:57:34;;;;;;;5.78;2.30;;;;;;;10.80;59.89;99645.73;1680302;85;21052;-71
2023/10/16 11:05:08;;;;;;;6.95;2.47;;;;;;;10.80;58.69;99644.36;1681536;84;21079;-68
2023/10/16 11:07:45;;;;;;;8.43;2.27;;;;;;;10.80;60.11;99648.47;1681710;85;21510;-67
2023/10/16 11:10:15;;;;;;;7.62;2.15;;;;;;;10.82;60.46;99658.69;1688700;84;21504;-68
2023/10/16 11:12:45;;;;;;;7.62;1.75;;;;;;;10.86;60.07;99651.70;1707730;84;21015;-66
2023/10/16 11:15:17;;;;;;;8.80;1.90;;;;;;;10.87;60.82;99653.39;1707747;84;21059;-66
2023/10/16 11:17:46;;;;;;;7.45;2.00;;;;;;;10.81;59.63;99659.74;1707737;84;21087;-67
2023/10/16 11:22:50;;;;;;;7.30;1.98;;;;;;;10.67;59.60;99658.95;1682576;83;21103;-67
2023/10/16 11:25:20;;;;;;;7.28;1.85;;;;;;;10.63;58.57;99645.91;1664593;84;21099;-67
2023/10/16 11:27:53;;;;;;;6.42;1.92;;;;;;;10.56;58.49;99649.20;1707924;84;21099;-66
2023/10/16 11:30:26;;;;;;;4.45;1.82;;;;;;;10.51;59.37;99654.48;1707594;84;21083;-67
2023/10/16 11:32:55;;;;;;;5.45;2.00;;;;;;;10.51;60.92;99654.48;1707446;84;21584;-67
2023/10/16 11:35:26;;;;;;;8.33;1.65;;;;;;;10.53;60.75;99653.21;1707805;84;21091;-68
2023/10/16 11:37:59;;;;;;;7.55;2.10;;;;;;;10.55;60.90;99650.26;1707712;84;21091;-66
2023/10/16 11:40:33;;;;;;;4.17;1.47;;;;;;;10.53;60.61;99657.84;1707775;84;21135;-67
2023/10/16 11:43:04;;;;;;;8.15;2.30;;;;;;;10.52;60.63;99655.64;1687975;83;21119;-67
2023/10/16 11:45:33;;;;;;;4.95;1.90;;;;;;;10.52;61.28;99658.37;1714007;84;21490;-66
2023/10/16 11:48:35;;;;;;;4.50;1.50;;;;;;;10.52;61.29;99660.27;1713695;82;21116;-67
2023/10/16 11:51:10;;;;;;;6.60;1.90;;;;;;;10.52;61.27;99671.23;1713359;82;21028;-68
2023/10/16 11:53:37;;;;;;;5.72;1.22;;;;;;;10.47;61.50;99674.09;1713747;84;21138;-67
2023/10/16 11:56:09;;;;;;;7.20;1.45;;;;;;;10.45;61.04;99672.09;1714028;84;21079;-66
2023/10/16 11:58:39;;;;;;;4.50;1.50;;;;;;;10.37;59.88;99679.66;1713843;84;21152;-66
2023/10/16 12:01:09;;;;;;;2.87;1.02;;;;;;;10.29;60.61;99681.27;1713972;84;21102;-65
2023/10/16 12:03:41;;;;;;;7.58;2.58;;;;;;;10.24;59.92;99677.80;1710978;84;21136;-68
2023/10/16 12:06:17;;;;;;;5.17;1.45;;;;;;;10.17;60.13;99694.72;1713746;83;21118;-68
2023/10/16 12:08:44;;;;;;;3.00;1.10;;;;;;;10.15;60.08;99689.99;1713621;82;21509;-68
2023/10/16 12:11:14;;;;;;;3.15;1.67;;;;;;;10.11;60.75;99688.20;1717552;82;21006;-70
2023/10/16 12:13:43;;;;;;;4.20;1.35;;;;;;;10.10;60.69;99688.42;1719316;83;21017;-68
2023/10/16 12:16:13;;;;;;;4.50;1.17;;;;;;;10.10;61.02;99684.31;1714026;83;21058;-68
2023/10/16 12:18:44;;;;;;;6.33;1.90;;;;;;;10.11;61.01;99692.31;1711364;84;21486;-67
2023/10/16 12:21:16;;;;;;;6.00;1.82;;;;;;;10.13;61.69;99704.41;1714078;84;21050;-68
2023/10/16 12:23:47;;;;;;;4.25;1.40;;;;;;;10.15;62.25;99696.83;1713924;84;21041;-69
2023/10/16 12:26:35;;;;;;;2.77;1.42;;;;;;;10.21;62.90;99705.59;1692639;83;21150;-69
2023/10/16 12:29:05;;;;;;;4.30;1.40;;;;;;;10.22;61.80;99704.55;1724689;83;21094;-69
2023/10/16 12:31:35;;;;;;;3.47;1.40;;;;;;;10.12;61.47;99710.94;1692527;85;21039;-69
2023/10/16 12:34:04;;;;;;;3.92;1.40;;;;;;;10.04;61.97;99704.31;1663380;86;21075;-68
2023/10/16 12:36:34;;;;;;;2.45;1.30;;;;;;;9.98;61.86;99711.48;1724055;83;21018;-68
2023/10/16 12:39:13;;;;;;;3.95;1.50;;;;;;;9.92;61.61;99715.58;1692628;85;21055;-69
2023/10/16 12:41:36;;;;;;;4.12;1.75;;;;;;;9.88;62.14;99716.53;1718003;83;21081;-69
2023/10/16 12:44:09;;;;;;;5.33;1.72;;;;;;;9.87;62.91;99720.84;1724953;83;21047;-68
2023/10/16 12:46:43;;;;;;;3.58;1.60;;;;;;;9.87;63.50;99731.79;1692960;85;21090;-69
2023/10/16 12:49:10;;;;;;;3.00;1.30;;;;;;;9.88;63.36;99728.00;1687127;84;21508;-67
2023/10/16 12:51:39;;;;;;;3.50;1.07;;;;;;;9.80;63.12;99738.09;1687042;85;21525;-68
2023/10/16 12:54:10;;;;;;;5.08;1.30;;;;;;;9.74;64.34;99747.63;1687271;85;21124;-68
2023/10/16 12:56:43;;;;;;;3.25;1.40;;;;;;;9.59;65.93;99758.76;1739953;82;21410;-68
2023/10/16 12:59:11;;;;;;;8.13;1.98;;;;;;;9.39;66.66;99749.14;1715407;83;21044;-68
2023/10/16 13:01:40;;;;;;;6.80;1.57;;;;;;;9.27;67.51;99747.20;1715616;84;21106;-71
2023/10/16 13:04:17;;;;;;;3.10;1.62;;;;;;;9.20;68.00;99754.86;1715631;84;21506;-70
2023/10/16 13:06:47;;;;;;;3.58;1.57;;;;;;;9.18;68.28;99746.02;1701454;84;21050;-71
2023/10/16 13:09:17;;;;;;;5.22;2.08;;;;;;;9.15;68.47;99756.53;1687171;85;21059;-67
2023/10/16 13:11:47;;;;;;;6.75;3.85;;;;;;;9.14;69.01;99763.88;1684474;85;21016;-67
2023/10/16 13:14:17;;;;;;;6.28;1.85;;;;;;;9.12;69.48;99763.24;1690162;85;21159;-67
2023/10/16 13:16:57;;;;;;;8.68;2.00;;;;;;;9.09;69.53;99773.18;1690567;84;21671;-68
2023/10/16 13:19:27;;;;;;;4.15;1.92;;;;;;;8.99;69.79;99770.51;1656774;86;21098;-68
2023/10/16 13:21:58;;;;;;;3.55;1.60;;;;;;;8.90;69.98;99773.93;1656688;86;21090;-69
2023/10/16 13:24:28;;;;;;;5.75;1.72;;;;;;;8.86;70.19;99786.30;1689654;83;21494;-70
2023/10/16 13:26:58;;;;;;;4.80;1.80;;;;;;;8.83;70.31;99779.87;1687363;85;21043;-69
2023/10/16 13:29:27;;;;;;;4.58;1.80;;;;;;;8.82;70.43;99780.93;1687167;85;21067;-69
2023/10/16 13:32:00;;;;;;;5.40;1.72;;;;;;;8.84;70.63;99776.95;1687292;84;21070;-72
2023/10/16 13:34:27;;;;;;;3.85;1.80;;;;;;;8.85;70.96;99782.73;1687362;85;21044;-70
2023/10/16 13:36:56;;;;;;;4.25;2.00;;;;;;;8.88;70.67;99793.78;1691127;84;21043;-69
2023/10/16 13:39:32;;;;;;;5.78;2.40;;;;;;;8.85;70.65;99790.08;1656656;86;21072;-68
2023/10/16 13:42:01;;;;;;;4.62;1.87;;;;;;;8.80;70.41;99794.78;1687424;85;21102;-70
2023/10/16 13:44:32;;;;;;;4.28;1.85;;;;;;;8.76;70.43;99794.87;1656735;85;21107;-70
2023/10/16 13:47:04;;;;;;;4.20;1.80;;;;;;;8.73;70.55;99798.52;1648125;87;21552;-70
2023/10/16 13:49:38;;;;;;;2.83;1.72;;;;;;;8.71;70.63;99789.69;1656928;86;21051;-70
2023/10/16 13:52:11;;;;;;;2.95;1.62;;;;;;;8.71;71.19;99800.61;1686726;85;21447;-69
2023/10/16 13:54:40;;;;;;;4.40;1.72;;;;;;;8.71;70.90;99799.24;1687345;85;21075;-70
2023/10/16 13:57:10;;;;;;;4.83;1.70;;;;;;;8.67;70.52;99807.52;1656548;85;21063;-68
2023/10/16 13:59:39;;;;;;;4.17;1.52;;;;;;;8.64;70.71;99814.74;1647726;87;21146;-67